sensor_id;sensor_type;location;lat;lon;timestamp;P1;durP1;ratioP1;P2;durP2;ratioP2
22470;SDS011;11402;51.374;6.594;2023-08-17T00:01:54;10.77;;;5.65;;
22470;SDS011;11402;51.374;6.594;2023-08-17T00:04:20;9.98;;;5.60;;
22470;SDS011;11402;51.374;6.594;2023-08-17T00:06:46;11.68;;;5.72;;
22470;SDS011;11402;51.374;6.594;2023-08-17T00:09:12;6.32;;;4.60;;
22470;SDS011;11402;51.374;6.594;2023-08-17T00:11:37;10.05;;;4.93;;
22470;SDS011;11402;51.374;6.594;2023-08-17T00:14:03;10.85;;;4.93;;
22470;SDS011;11402;51.374;6.594;2023-08-17T00:16:30;6.50;;;4.47;;
22470;SDS011;11402;51.374;6.594;2023-08-17T00:18:56;6.43;;;4.35;;
22470;SDS011;11402;51.374;6.594;2023-08-17T00:21:22;8.30;;;4.78;;
22470;SDS011;11402;51.374;6.594;2023-08-17T00:23:47;8.40;;;4.97;;
22470;SDS011;11402;51.374;6.594;2023-08-17T00:26:14;10.32;;;4.88;;
22470;SDS011;11402;51.374;6.594;2023-08-17T00:28:39;10.15;;;4.82;;
22470;SDS011;11402;51.374;6.594;2023-08-17T00:31:05;5.93;;;4.05;;
22470;SDS011;11402;51.374;6.594;2023-08-17T00:33:31;10.07;;;5.30;;
22470;SDS011;11402;51.374;6.594;2023-08-17T00:35:56;8.27;;;4.85;;
22470;SDS011;11402;51.374;6.594;2023-08-17T00:38:22;11.35;;;5.05;;
22470;SDS011;11402;51.374;6.594;2023-08-17T00:40:48;11.43;;;5.93;;
22470;SDS011;11402;51.374;6.594;2023-08-17T00:43:13;13.57;;;6.75;;
22470;SDS011;11402;51.374;6.594;2023-08-17T00:45:39;9.60;;;7.05;;
22470;SDS011;11402;51.374;6.594;2023-08-17T00:48:06;12.75;;;7.53;;
22470;SDS011;11402;51.374;6.594;2023-08-17T00:50:32;10.80;;;7.68;;
22470;SDS011;11402;51.374;6.594;2023-08-17T00:53:00;10.43;;;7.70;;
22470;SDS011;11402;51.374;6.594;2023-08-17T00:55:26;8.95;;;7.97;;
22470;SDS011;11402;51.374;6.594;2023-08-17T00:57:52;12.05;;;7.18;;
22470;SDS011;11402;51.374;6.594;2023-08-17T01:00:18;10.60;;;6.22;;
22470;SDS011;11402;51.374;6.594;2023-08-17T01:02:45;14.70;;;6.70;;
22470;SDS011;11402;51.374;6.594;2023-08-17T01:05:12;11.10;;;7.53;;
22470;SDS011;11402;51.374;6.594;2023-08-17T01:07:38;13.35;;;7.63;;
22470;SDS011;11402;51.374;6.594;2023-08-17T01:10:04;12.75;;;7.85;;
22470;SDS011;11402;51.374;6.594;2023-08-17T01:12:32;12.15;;;7.15;;
22470;SDS011;11402;51.374;6.594;2023-08-17T01:15:21;10.35;;;7.38;;
22470;SDS011;11402;51.374;6.594;2023-08-17T01:20:47;11.23;;;7.78;;
22470;SDS011;11402;51.374;6.594;2023-08-17T01:23:14;12.75;;;7.70;;
22470;SDS011;11402;51.374;6.594;2023-08-17T01:25:40;13.05;;;7.85;;
22470;SDS011;11402;51.374;6.594;2023-08-17T01:28:05;11.02;;;7.28;;
22470;SDS011;11402;51.374;6.594;2023-08-17T01:30:39;12.93;;;7.32;;
22470;SDS011;11402;51.374;6.594;2023-08-17T01:33:31;14.23;;;8.10;;
22470;SDS011;11402;51.374;6.594;2023-08-17T01:38:34;14.70;;;7.45;;
22470;SDS011;11402;51.374;6.594;2023-08-17T01:41:01;15.73;;;7.85;;
22470;SDS011;11402;51.374;6.594;2023-08-17T01:43:28;16.30;;;8.18;;
22470;SDS011;11402;51.374;6.594;2023-08-17T01:45:55;15.93;;;8.32;;
22470;SDS011;11402;51.374;6.594;2023-08-17T01:48:20;13.35;;;7.55;;
22470;SDS011;11402;51.374;6.594;2023-08-17T01:50:46;12.02;;;7.00;;
22470;SDS011;11402;51.374;6.594;2023-08-17T01:53:11;12.70;;;7.43;;
22470;SDS011;11402;51.374;6.594;2023-08-17T01:55:37;12.65;;;7.35;;
22470;SDS011;11402;51.374;6.594;2023-08-17T01:58:03;12.43;;;7.82;;
22470;SDS011;11402;51.374;6.594;2023-08-17T02:00:28;13.25;;;7.45;;
22470;SDS011;11402;51.374;6.594;2023-08-17T02:02:54;13.23;;;7.32;;
22470;SDS011;11402;51.374;6.594;2023-08-17T02:05:19;10.60;;;7.50;;
22470;SDS011;11402;51.374;6.594;2023-08-17T02:07:45;12.70;;;7.25;;
22470;SDS011;11402;51.374;6.594;2023-08-17T02:10:11;13.68;;;7.88;;
22470;SDS011;11402;51.374;6.594;2023-08-17T02:12:37;9.32;;;7.05;;
22470;SDS011;11402;51.374;6.594;2023-08-17T02:15:02;13.48;;;7.40;;
22470;SDS011;11402;51.374;6.594;2023-08-17T02:17:28;9.07;;;6.78;;
22470;SDS011;11402;51.374;6.594;2023-08-17T02:19:54;12.70;;;7.45;;
22470;SDS011;11402;51.374;6.594;2023-08-17T02:22:19;11.98;;;7.60;;
22470;SDS011;11402;51.374;6.594;2023-08-17T02:24:45;10.90;;;7.45;;
22470;SDS011;11402;51.374;6.594;2023-08-17T02:27:11;12.15;;;8.32;;
22470;SDS011;11402;51.374;6.594;2023-08-17T02:29:37;14.77;;;8.15;;
22470;SDS011;11402;51.374;6.594;2023-08-17T02:32:03;12.18;;;8.07;;
22470;SDS011;11402;51.374;6.594;2023-08-17T02:34:29;11.10;;;8.00;;
22470;SDS011;11402;51.374;6.594;2023-08-17T02:36:55;14.85;;;8.32;;
22470;SDS011;11402;51.374;6.594;2023-08-17T02:39:20;14.68;;;7.97;;
22470;SDS011;11402;51.374;6.594;2023-08-17T02:41:46;16.52;;;7.28;;
22470;SDS011;11402;51.374;6.594;2023-08-17T02:44:14;12.88;;;7.45;;
22470;SDS011;11402;51.374;6.594;2023-08-17T02:46:40;11.05;;;7.18;;
22470;SDS011;11402;51.374;6.594;2023-08-17T02:49:05;10.48;;;7.32;;
22470;SDS011;11402;51.374;6.594;2023-08-17T02:51:31;12.95;;;7.43;;
22470;SDS011;11402;51.374;6.594;2023-08-17T02:53:56;12.40;;;7.68;;
22470;SDS011;11402;51.374;6.594;2023-08-17T02:56:22;8.02;;;5.90;;
22470;SDS011;11402;51.374;6.594;2023-08-17T02:58:47;11.00;;;6.15;;
22470;SDS011;11402;51.374;6.594;2023-08-17T03:01:13;13.70;;;6.07;;
22470;SDS011;11402;51.374;6.594;2023-08-17T03:03:39;10.50;;;5.97;;
22470;SDS011;11402;51.374;6.594;2023-08-17T03:06:04;9.98;;;6.00;;
22470;SDS011;11402;51.374;6.594;2023-08-17T03:08:31;10.52;;;5.90;;
22470;SDS011;11402;51.374;6.594;2023-08-17T03:10:56;12.10;;;6.38;;
22470;SDS011;11402;51.374;6.594;2023-08-17T03:13:22;12.10;;;6.72;;
22470;SDS011;11402;51.374;6.594;2023-08-17T03:15:47;10.13;;;6.95;;
22470;SDS011;11402;51.374;6.594;2023-08-17T03:18:13;13.55;;;7.20;;
22470;SDS011;11402;51.374;6.594;2023-08-17T03:20:38;11.57;;;6.75;;
22470;SDS011;11402;51.374;6.594;2023-08-17T03:23:04;11.65;;;6.70;;
22470;SDS011;11402;51.374;6.594;2023-08-17T03:25:33;12.93;;;6.10;;
22470;SDS011;11402;51.374;6.594;2023-08-17T03:27:59;13.10;;;6.60;;
22470;SDS011;11402;51.374;6.594;2023-08-17T03:30:25;12.63;;;6.22;;
22470;SDS011;11402;51.374;6.594;2023-08-17T03:32:51;11.57;;;5.93;;
22470;SDS011;11402;51.374;6.594;2023-08-17T03:35:17;11.30;;;7.00;;
22470;SDS011;11402;51.374;6.594;2023-08-17T03:37:43;14.25;;;6.78;;
22470;SDS011;11402;51.374;6.594;2023-08-17T03:40:08;9.63;;;6.35;;
22470;SDS011;11402;51.374;6.594;2023-08-17T03:42:34;8.88;;;6.47;;
22470;SDS011;11402;51.374;6.594;2023-08-17T03:44:59;10.65;;;6.70;;
22470;SDS011;11402;51.374;6.594;2023-08-17T03:47:25;8.85;;;6.47;;
22470;SDS011;11402;51.374;6.594;2023-08-17T03:49:51;13.35;;;6.53;;
22470;SDS011;11402;51.374;6.594;2023-08-17T03:52:17;11.63;;;6.60;;
22470;SDS011;11402;51.374;6.594;2023-08-17T03:54:42;11.85;;;6.50;;
22470;SDS011;11402;51.374;6.594;2023-08-17T03:57:08;16.65;;;6.68;;
22470;SDS011;11402;51.374;6.594;2023-08-17T03:59:34;9.18;;;7.05;;
22470;SDS011;11402;51.374;6.594;2023-08-17T04:01:59;12.85;;;6.68;;
22470;SDS011;11402;51.374;6.594;2023-08-17T04:04:25;13.60;;;7.40;;
22470;SDS011;11402;51.374;6.594;2023-08-17T04:06:50;11.90;;;7.38;;
22470;SDS011;11402;51.374;6.594;2023-08-17T04:09:16;13.13;;;7.47;;
22470;SDS011;11402;51.374;6.594;2023-08-17T04:11:41;13.10;;;7.50;;
22470;SDS011;11402;51.374;6.594;2023-08-17T04:14:07;13.13;;;7.70;;
22470;SDS011;11402;51.374;6.594;2023-08-17T04:16:34;15.23;;;7.57;;
22470;SDS011;11402;51.374;6.594;2023-08-17T04:19:00;11.68;;;7.13;;
22470;SDS011;11402;51.374;6.594;2023-08-17T04:21:26;13.40;;;7.68;;
22470;SDS011;11402;51.374;6.594;2023-08-17T04:23:51;11.18;;;7.75;;
22470;SDS011;11402;51.374;6.594;2023-08-17T04:26:17;13.48;;;7.45;;
22470;SDS011;11402;51.374;6.594;2023-08-17T04:28:42;9.57;;;7.30;;
22470;SDS011;11402;51.374;6.594;2023-08-17T04:31:08;11.82;;;6.88;;
22470;SDS011;11402;51.374;6.594;2023-08-17T04:33:33;14.40;;;7.38;;
22470;SDS011;11402;51.374;6.594;2023-08-17T04:35:59;10.73;;;6.90;;
22470;SDS011;11402;51.374;6.594;2023-08-17T04:38:25;13.70;;;6.90;;
22470;SDS011;11402;51.374;6.594;2023-08-17T04:40:51;13.30;;;7.00;;
22470;SDS011;11402;51.374;6.594;2023-08-17T04:43:17;11.40;;;6.72;;
22470;SDS011;11402;51.374;6.594;2023-08-17T04:45:42;11.27;;;6.43;;
22470;SDS011;11402;51.374;6.594;2023-08-17T04:48:09;10.73;;;7.18;;
22470;SDS011;11402;51.374;6.594;2023-08-17T04:50:35;12.43;;;7.28;;
22470;SDS011;11402;51.374;6.594;2023-08-17T04:53:00;12.10;;;7.03;;
22470;SDS011;11402;51.374;6.594;2023-08-17T04:55:26;13.57;;;7.45;;
22470;SDS011;11402;51.374;6.594;2023-08-17T04:57:51;11.52;;;7.18;;
22470;SDS011;11402;51.374;6.594;2023-08-17T05:00:17;10.52;;;7.50;;
22470;SDS011;11402;51.374;6.594;2023-08-17T05:02:45;14.60;;;7.13;;
22470;SDS011;11402;51.374;6.594;2023-08-17T05:05:10;14.45;;;7.88;;
22470;SDS011;11402;51.374;6.594;2023-08-17T05:07:36;11.32;;;7.18;;
22470;SDS011;11402;51.374;6.594;2023-08-17T05:10:02;13.23;;;7.85;;
22470;SDS011;11402;51.374;6.594;2023-08-17T05:12:27;15.00;;;7.40;;
22470;SDS011;11402;51.374;6.594;2023-08-17T05:14:53;12.48;;;7.78;;
22470;SDS011;11402;51.374;6.594;2023-08-17T05:17:19;11.48;;;7.80;;
22470;SDS011;11402;51.374;6.594;2023-08-17T05:19:44;11.20;;;7.78;;
22470;SDS011;11402;51.374;6.594;2023-08-17T05:22:11;15.70;;;7.70;;
22470;SDS011;11402;51.374;6.594;2023-08-17T05:24:38;14.20;;;7.82;;
22470;SDS011;11402;51.374;6.594;2023-08-17T05:27:04;14.43;;;7.85;;
22470;SDS011;11402;51.374;6.594;2023-08-17T05:29:30;13.05;;;8.23;;
22470;SDS011;11402;51.374;6.594;2023-08-17T05:31:57;13.55;;;7.70;;
22470;SDS011;11402;51.374;6.594;2023-08-17T05:34:23;14.90;;;8.15;;
22470;SDS011;11402;51.374;6.594;2023-08-17T05:36:49;15.70;;;8.43;;
22470;SDS011;11402;51.374;6.594;2023-08-17T05:39:14;16.30;;;8.32;;
22470;SDS011;11402;51.374;6.594;2023-08-17T05:41:40;13.20;;;8.07;;
22470;SDS011;11402;51.374;6.594;2023-08-17T05:44:06;12.90;;;8.23;;
22470;SDS011;11402;51.374;6.594;2023-08-17T05:46:34;14.88;;;8.52;;
22470;SDS011;11402;51.374;6.594;2023-08-17T05:49:01;16.67;;;8.02;;
22470;SDS011;11402;51.374;6.594;2023-08-17T05:51:27;14.23;;;8.27;;
22470;SDS011;11402;51.374;6.594;2023-08-17T05:53:53;15.48;;;8.20;;
22470;SDS011;11402;51.374;6.594;2023-08-17T05:56:18;16.58;;;8.30;;
22470;SDS011;11402;51.374;6.594;2023-08-17T05:58:44;13.02;;;8.05;;
22470;SDS011;11402;51.374;6.594;2023-08-17T06:01:10;13.00;;;8.38;;
22470;SDS011;11402;51.374;6.594;2023-08-17T06:03:36;14.85;;;8.38;;
22470;SDS011;11402;51.374;6.594;2023-08-17T06:06:02;13.98;;;8.55;;
22470;SDS011;11402;51.374;6.594;2023-08-17T06:08:28;14.05;;;8.15;;
22470;SDS011;11402;51.374;6.594;2023-08-17T06:10:55;13.07;;;8.15;;
22470;SDS011;11402;51.374;6.594;2023-08-17T06:13:20;15.30;;;8.48;;
22470;SDS011;11402;51.374;6.594;2023-08-17T06:15:46;12.65;;;8.73;;
22470;SDS011;11402;51.374;6.594;2023-08-17T06:18:11;13.13;;;9.07;;
22470;SDS011;11402;51.374;6.594;2023-08-17T06:20:37;16.90;;;9.65;;
22470;SDS011;11402;51.374;6.594;2023-08-17T06:23:03;13.98;;;9.00;;
22470;SDS011;11402;51.374;6.594;2023-08-17T06:25:29;15.10;;;9.95;;
22470;SDS011;11402;51.374;6.594;2023-08-17T06:27:54;15.43;;;9.10;;
22470;SDS011;11402;51.374;6.594;2023-08-17T06:30:20;16.33;;;9.43;;
22470;SDS011;11402;51.374;6.594;2023-08-17T06:32:46;16.73;;;9.70;;
22470;SDS011;11402;51.374;6.594;2023-08-17T06:35:12;15.55;;;9.88;;
22470;SDS011;11402;51.374;6.594;2023-08-17T06:37:37;13.60;;;9.10;;
22470;SDS011;11402;51.374;6.594;2023-08-17T06:40:03;18.65;;;10.10;;
22470;SDS011;11402;51.374;6.594;2023-08-17T06:42:34;15.60;;;10.27;;
22470;SDS011;11402;51.374;6.594;2023-08-17T06:45:00;15.65;;;10.60;;
22470;SDS011;11402;51.374;6.594;2023-08-17T06:47:26;18.08;;;11.98;;
22470;SDS011;11402;51.374;6.594;2023-08-17T06:49:51;18.02;;;11.55;;
22470;SDS011;11402;51.374;6.594;2023-08-17T06:52:17;21.33;;;13.30;;
22470;SDS011;11402;51.374;6.594;2023-08-17T06:54:42;20.00;;;14.55;;
22470;SDS011;11402;51.374;6.594;2023-08-17T06:57:08;24.25;;;15.18;;
22470;SDS011;11402;51.374;6.594;2023-08-17T06:59:34;28.83;;;18.05;;
22470;SDS011;11402;51.374;6.594;2023-08-17T07:02:00;26.65;;;19.48;;
22470;SDS011;11402;51.374;6.594;2023-08-17T07:04:25;29.25;;;20.88;;
22470;SDS011;11402;51.374;6.594;2023-08-17T07:06:51;30.05;;;19.85;;
22470;SDS011;11402;51.374;6.594;2023-08-17T07:09:17;30.35;;;20.65;;
22470;SDS011;11402;51.374;6.594;2023-08-17T07:11:43;31.00;;;23.55;;
22470;SDS011;11402;51.374;6.594;2023-08-17T07:14:09;35.72;;;21.80;;
22470;SDS011;11402;51.374;6.594;2023-08-17T07:16:34;29.90;;;22.27;;
22470;SDS011;11402;51.374;6.594;2023-08-17T07:19:00;34.60;;;23.42;;
22470;SDS011;11402;51.374;6.594;2023-08-17T07:21:27;26.70;;;21.13;;
22470;SDS011;11402;51.374;6.594;2023-08-17T07:23:53;23.75;;;20.98;;
22470;SDS011;11402;51.374;6.594;2023-08-17T07:26:19;32.30;;;22.42;;
22470;SDS011;11402;51.374;6.594;2023-08-17T07:28:45;30.80;;;23.10;;
22470;SDS011;11402;51.374;6.594;2023-08-17T07:31:12;30.20;;;22.05;;
22470;SDS011;11402;51.374;6.594;2023-08-17T07:33:38;29.70;;;22.63;;
22470;SDS011;11402;51.374;6.594;2023-08-17T07:36:04;31.58;;;24.67;;
22470;SDS011;11402;51.374;6.594;2023-08-17T07:38:30;35.85;;;23.20;;
22470;SDS011;11402;51.374;6.594;2023-08-17T07:40:55;32.88;;;24.20;;
22470;SDS011;11402;51.374;6.594;2023-08-17T07:43:21;32.53;;;23.67;;
22470;SDS011;11402;51.374;6.594;2023-08-17T07:45:56;38.20;;;24.92;;
22470;SDS011;11402;51.374;6.594;2023-08-17T07:48:22;30.23;;;24.02;;
22470;SDS011;11402;51.374;6.594;2023-08-17T07:50:48;30.80;;;24.60;;
22470;SDS011;11402;51.374;6.594;2023-08-17T07:53:17;32.85;;;25.35;;
22470;SDS011;11402;51.374;6.594;2023-08-17T07:55:43;38.13;;;26.90;;
22470;SDS011;11402;51.374;6.594;2023-08-17T07:58:09;31.95;;;25.67;;
22470;SDS011;11402;51.374;6.594;2023-08-17T08:00:35;33.67;;;25.45;;
22470;SDS011;11402;51.374;6.594;2023-08-17T08:03:01;30.13;;;25.67;;
22470;SDS011;11402;51.374;6.594;2023-08-17T08:05:27;30.20;;;25.15;;
22470;SDS011;11402;51.374;6.594;2023-08-17T08:07:52;31.80;;;25.02;;
22470;SDS011;11402;51.374;6.594;2023-08-17T08:10:18;29.83;;;24.10;;
22470;SDS011;11402;51.374;6.594;2023-08-17T08:12:44;29.92;;;22.27;;
22470;SDS011;11402;51.374;6.594;2023-08-17T08:15:09;31.08;;;23.15;;
22470;SDS011;11402;51.374;6.594;2023-08-17T08:17:35;30.30;;;22.90;;
22470;SDS011;11402;51.374;6.594;2023-08-17T08:20:01;30.15;;;23.35;;
22470;SDS011;11402;51.374;6.594;2023-08-17T08:22:26;29.77;;;23.58;;
22470;SDS011;11402;51.374;6.594;2023-08-17T08:24:52;28.27;;;24.25;;
22470;SDS011;11402;51.374;6.594;2023-08-17T08:27:18;30.50;;;23.88;;
22470;SDS011;11402;51.374;6.594;2023-08-17T08:29:43;28.20;;;23.80;;
22470;SDS011;11402;51.374;6.594;2023-08-17T08:32:09;29.88;;;23.88;;
22470;SDS011;11402;51.374;6.594;2023-08-17T08:34:34;31.27;;;24.15;;
22470;SDS011;11402;51.374;6.594;2023-08-17T08:37:00;26.27;;;22.38;;
22470;SDS011;11402;51.374;6.594;2023-08-17T08:39:26;37.35;;;24.70;;
22470;SDS011;11402;51.374;6.594;2023-08-17T08:41:52;34.10;;;26.92;;
22470;SDS011;11402;51.374;6.594;2023-08-17T08:44:18;33.25;;;28.48;;
22470;SDS011;11402;51.374;6.594;2023-08-17T08:46:45;38.15;;;28.25;;
22470;SDS011;11402;51.374;6.594;2023-08-17T08:49:12;41.42;;;29.48;;
22470;SDS011;11402;51.374;6.594;2023-08-17T08:51:43;37.08;;;29.35;;
22470;SDS011;11402;51.374;6.594;2023-08-17T08:54:14;34.95;;;27.70;;
22470;SDS011;11402;51.374;6.594;2023-08-17T08:56:46;38.10;;;29.08;;
22470;SDS011;11402;51.374;6.594;2023-08-17T08:59:16;34.72;;;29.05;;
22470;SDS011;11402;51.374;6.594;2023-08-17T09:01:42;38.72;;;28.63;;
22470;SDS011;11402;51.374;6.594;2023-08-17T09:04:07;35.65;;;29.45;;
22470;SDS011;11402;51.374;6.594;2023-08-17T09:06:33;36.78;;;30.63;;
22470;SDS011;11402;51.374;6.594;2023-08-17T09:09:00;41.25;;;31.85;;
22470;SDS011;11402;51.374;6.594;2023-08-17T09:11:27;41.40;;;32.97;;
22470;SDS011;11402;51.374;6.594;2023-08-17T09:13:53;41.70;;;30.65;;
22470;SDS011;11402;51.374;6.594;2023-08-17T09:16:19;37.15;;;29.70;;
22470;SDS011;11402;51.374;6.594;2023-08-17T09:18:45;38.97;;;30.13;;
22470;SDS011;11402;51.374;6.594;2023-08-17T09:21:21;40.08;;;31.33;;
22470;SDS011;11402;51.374;6.594;2023-08-17T09:23:55;38.97;;;31.15;;
22470;SDS011;11402;51.374;6.594;2023-08-17T09:26:21;43.85;;;32.10;;
22470;SDS011;11402;51.374;6.594;2023-08-17T09:28:49;46.58;;;33.65;;
22470;SDS011;11402;51.374;6.594;2023-08-17T09:31:15;44.38;;;32.95;;
22470;SDS011;11402;51.374;6.594;2023-08-17T09:33:40;43.08;;;32.53;;
22470;SDS011;11402;51.374;6.594;2023-08-17T09:36:06;43.92;;;29.98;;
22470;SDS011;11402;51.374;6.594;2023-08-17T09:38:34;48.33;;;31.92;;
22470;SDS011;11402;51.374;6.594;2023-08-17T09:41:03;44.53;;;31.88;;
22470;SDS011;11402;51.374;6.594;2023-08-17T09:43:31;44.92;;;31.15;;
22470;SDS011;11402;51.374;6.594;2023-08-17T09:45:58;47.78;;;33.17;;
22470;SDS011;11402;51.374;6.594;2023-08-17T09:48:26;45.53;;;33.67;;
22470;SDS011;11402;51.374;6.594;2023-08-17T09:50:52;45.60;;;34.10;;
22470;SDS011;11402;51.374;6.594;2023-08-17T09:53:21;46.28;;;34.92;;
22470;SDS011;11402;51.374;6.594;2023-08-17T09:55:47;53.35;;;33.85;;
22470;SDS011;11402;51.374;6.594;2023-08-17T09:58:13;45.35;;;32.60;;
22470;SDS011;11402;51.374;6.594;2023-08-17T10:00:46;55.45;;;34.55;;
22470;SDS011;11402;51.374;6.594;2023-08-17T10:03:28;47.40;;;32.72;;
22470;SDS011;11402;51.374;6.594;2023-08-17T10:05:59;41.60;;;32.42;;
22470;SDS011;11402;51.374;6.594;2023-08-17T10:08:30;44.10;;;33.28;;
22470;SDS011;11402;51.374;6.594;2023-08-17T10:10:58;47.47;;;34.17;;
22470;SDS011;11402;51.374;6.594;2023-08-17T10:15:55;45.17;;;32.10;;
22470;SDS011;11402;51.374;6.594;2023-08-17T10:18:31;37.97;;;31.75;;
22470;SDS011;11402;51.374;6.594;2023-08-17T10:21:28;43.67;;;32.40;;
22470;SDS011;11402;51.374;6.594;2023-08-17T10:23:56;39.33;;;31.50;;
22470;SDS011;11402;51.374;6.594;2023-08-17T10:26:23;39.80;;;32.20;;
22470;SDS011;11402;51.374;6.594;2023-08-17T10:28:50;39.33;;;30.67;;
22470;SDS011;11402;51.374;6.594;2023-08-17T10:31:17;43.42;;;32.00;;
22470;SDS011;11402;51.374;6.594;2023-08-17T10:33:42;37.30;;;30.55;;
22470;SDS011;11402;51.374;6.594;2023-08-17T10:36:12;42.55;;;33.90;;
22470;SDS011;11402;51.374;6.594;2023-08-17T10:38:39;43.45;;;33.95;;
22470;SDS011;11402;51.374;6.594;2023-08-17T10:41:11;42.08;;;33.15;;
22470;SDS011;11402;51.374;6.594;2023-08-17T10:43:55;41.28;;;33.20;;
22470;SDS011;11402;51.374;6.594;2023-08-17T10:46:32;45.30;;;32.85;;
22470;SDS011;11402;51.374;6.594;2023-08-17T10:49:05;41.58;;;31.88;;
22470;SDS011;11402;51.374;6.594;2023-08-17T10:51:32;39.72;;;31.92;;
22470;SDS011;11402;51.374;6.594;2023-08-17T10:53:59;41.90;;;31.02;;
22470;SDS011;11402;51.374;6.594;2023-08-17T10:56:27;40.17;;;30.63;;
22470;SDS011;11402;51.374;6.594;2023-08-17T10:58:54;39.20;;;30.35;;
22470;SDS011;11402;51.374;6.594;2023-08-17T11:01:31;38.63;;;30.25;;
22470;SDS011;11402;51.374;6.594;2023-08-17T11:06:45;43.63;;;30.98;;
22470;SDS011;11402;51.374;6.594;2023-08-17T11:09:11;41.30;;;31.90;;
22470;SDS011;11402;51.374;6.594;2023-08-17T11:11:37;41.97;;;31.25;;
22470;SDS011;11402;51.374;6.594;2023-08-17T11:14:03;44.13;;;30.63;;
22470;SDS011;11402;51.374;6.594;2023-08-17T11:16:29;41.83;;;30.83;;
22470;SDS011;11402;51.374;6.594;2023-08-17T11:18:55;35.90;;;29.73;;
22470;SDS011;11402;51.374;6.594;2023-08-17T11:21:23;39.05;;;31.30;;
22470;SDS011;11402;51.374;6.594;2023-08-17T11:23:49;41.42;;;30.75;;
22470;SDS011;11402;51.374;6.594;2023-08-17T11:26:16;41.20;;;31.23;;
22470;SDS011;11402;51.374;6.594;2023-08-17T11:28:42;111.88;;;93.75;;
22470;SDS011;11402;51.374;6.594;2023-08-17T11:31:10;37.35;;;28.70;;
22470;SDS011;11402;51.374;6.594;2023-08-17T11:33:37;38.78;;;27.63;;
22470;SDS011;11402;51.374;6.594;2023-08-17T11:36:04;41.40;;;30.98;;
22470;SDS011;11402;51.374;6.594;2023-08-17T11:38:35;38.88;;;30.65;;
22470;SDS011;11402;51.374;6.594;2023-08-17T11:41:02;38.47;;;31.05;;
22470;SDS011;11402;51.374;6.594;2023-08-17T11:43:28;38.25;;;30.88;;
22470;SDS011;11402;51.374;6.594;2023-08-17T11:45:55;37.42;;;28.52;;
22470;SDS011;11402;51.374;6.594;2023-08-17T11:48:22;40.30;;;30.63;;
22470;SDS011;11402;51.374;6.594;2023-08-17T11:50:49;35.40;;;28.55;;
22470;SDS011;11402;51.374;6.594;2023-08-17T11:53:15;41.03;;;30.45;;
22470;SDS011;11402;51.374;6.594;2023-08-17T11:55:40;36.78;;;29.15;;
22470;SDS011;11402;51.374;6.594;2023-08-17T11:58:06;35.78;;;27.95;;
22470;SDS011;11402;51.374;6.594;2023-08-17T12:00:50;34.05;;;28.45;;
22470;SDS011;11402;51.374;6.594;2023-08-17T12:05:42;31.73;;;26.20;;
22470;SDS011;11402;51.374;6.594;2023-08-17T12:08:09;37.38;;;27.48;;
22470;SDS011;11402;51.374;6.594;2023-08-17T12:10:36;36.00;;;28.17;;
22470;SDS011;11402;51.374;6.594;2023-08-17T12:13:02;36.03;;;28.50;;
22470;SDS011;11402;51.374;6.594;2023-08-17T12:15:32;34.47;;;28.70;;
22470;SDS011;11402;51.374;6.594;2023-08-17T12:17:59;33.47;;;27.80;;
22470;SDS011;11402;51.374;6.594;2023-08-17T12:20:25;35.83;;;27.98;;
22470;SDS011;11402;51.374;6.594;2023-08-17T12:22:51;37.00;;;27.40;;
22470;SDS011;11402;51.374;6.594;2023-08-17T12:25:20;38.35;;;28.17;;
22470;SDS011;11402;51.374;6.594;2023-08-17T12:27:47;32.35;;;27.17;;
22470;SDS011;11402;51.374;6.594;2023-08-17T12:30:16;37.33;;;28.08;;
22470;SDS011;11402;51.374;6.594;2023-08-17T12:32:57;35.58;;;28.38;;
22470;SDS011;11402;51.374;6.594;2023-08-17T12:35:26;30.48;;;27.15;;
22470;SDS011;11402;51.374;6.594;2023-08-17T12:37:52;37.55;;;29.23;;
22470;SDS011;11402;51.374;6.594;2023-08-17T12:40:18;38.25;;;28.60;;
22470;SDS011;11402;51.374;6.594;2023-08-17T12:42:44;35.25;;;28.58;;
22470;SDS011;11402;51.374;6.594;2023-08-17T12:45:10;33.63;;;27.40;;
22470;SDS011;11402;51.374;6.594;2023-08-17T12:47:35;34.50;;;28.52;;
22470;SDS011;11402;51.374;6.594;2023-08-17T12:50:01;34.60;;;29.08;;
22470;SDS011;11402;51.374;6.594;2023-08-17T12:52:28;30.10;;;26.90;;
22470;SDS011;11402;51.374;6.594;2023-08-17T12:54:54;35.92;;;27.92;;
22470;SDS011;11402;51.374;6.594;2023-08-17T12:57:20;33.70;;;28.08;;
22470;SDS011;11402;51.374;6.594;2023-08-17T12:59:45;38.13;;;28.98;;
22470;SDS011;11402;51.374;6.594;2023-08-17T13:02:11;37.20;;;28.80;;
22470;SDS011;11402;51.374;6.594;2023-08-17T13:04:36;37.63;;;27.95;;
22470;SDS011;11402;51.374;6.594;2023-08-17T13:07:02;31.75;;;27.17;;
22470;SDS011;11402;51.374;6.594;2023-08-17T13:09:28;34.70;;;29.40;;
22470;SDS011;11402;51.374;6.594;2023-08-17T13:11:53;35.45;;;30.88;;
22470;SDS011;11402;51.374;6.594;2023-08-17T13:14:19;36.65;;;30.10;;
22470;SDS011;11402;51.374;6.594;2023-08-17T13:16:44;38.38;;;30.63;;
22470;SDS011;11402;51.374;6.594;2023-08-17T13:19:10;36.85;;;30.95;;
22470;SDS011;11402;51.374;6.594;2023-08-17T13:21:35;41.13;;;32.47;;
22470;SDS011;11402;51.374;6.594;2023-08-17T13:24:01;43.08;;;32.45;;
22470;SDS011;11402;51.374;6.594;2023-08-17T13:26:28;40.70;;;31.02;;
22470;SDS011;11402;51.374;6.594;2023-08-17T13:28:54;39.17;;;30.27;;
22470;SDS011;11402;51.374;6.594;2023-08-17T13:31:20;39.60;;;30.13;;
22470;SDS011;11402;51.374;6.594;2023-08-17T13:33:46;34.88;;;29.85;;
22470;SDS011;11402;51.374;6.594;2023-08-17T13:36:11;38.35;;;29.60;;
22470;SDS011;11402;51.374;6.594;2023-08-17T13:38:37;41.83;;;32.63;;
22470;SDS011;11402;51.374;6.594;2023-08-17T13:41:03;38.38;;;32.05;;
22470;SDS011;11402;51.374;6.594;2023-08-17T13:43:29;41.33;;;32.47;;
22470;SDS011;11402;51.374;6.594;2023-08-17T13:45:57;43.53;;;33.63;;
22470;SDS011;11402;51.374;6.594;2023-08-17T13:48:23;43.53;;;34.42;;
22470;SDS011;11402;51.374;6.594;2023-08-17T13:50:49;45.38;;;34.67;;
22470;SDS011;11402;51.374;6.594;2023-08-17T13:53:14;43.47;;;35.83;;
22470;SDS011;11402;51.374;6.594;2023-08-17T13:55:40;44.65;;;36.95;;
22470;SDS011;11402;51.374;6.594;2023-08-17T13:58:05;44.63;;;34.78;;
22470;SDS011;11402;51.374;6.594;2023-08-17T14:00:31;43.55;;;35.47;;
22470;SDS011;11402;51.374;6.594;2023-08-17T14:02:57;43.42;;;36.15;;
22470;SDS011;11402;51.374;6.594;2023-08-17T14:05:22;44.20;;;36.72;;
22470;SDS011;11402;51.374;6.594;2023-08-17T14:07:48;42.72;;;36.00;;
22470;SDS011;11402;51.374;6.594;2023-08-17T14:10:14;44.20;;;36.00;;
22470;SDS011;11402;51.374;6.594;2023-08-17T14:12:39;44.20;;;37.13;;
22470;SDS011;11402;51.374;6.594;2023-08-17T14:15:05;42.95;;;34.75;;
22470;SDS011;11402;51.374;6.594;2023-08-17T14:17:35;43.72;;;35.40;;
22470;SDS011;11402;51.374;6.594;2023-08-17T14:20:00;44.03;;;35.30;;
22470;SDS011;11402;51.374;6.594;2023-08-17T14:22:26;40.22;;;34.13;;
22470;SDS011;11402;51.374;6.594;2023-08-17T14:24:52;37.28;;;31.35;;
22470;SDS011;11402;51.374;6.594;2023-08-17T14:27:17;41.83;;;31.63;;
22470;SDS011;11402;51.374;6.594;2023-08-17T14:29:43;39.38;;;31.75;;
22470;SDS011;11402;51.374;6.594;2023-08-17T14:32:08;39.20;;;29.83;;
22470;SDS011;11402;51.374;6.594;2023-08-17T14:34:34;37.88;;;30.30;;
22470;SDS011;11402;51.374;6.594;2023-08-17T14:36:59;38.17;;;30.65;;
22470;SDS011;11402;51.374;6.594;2023-08-17T14:39:25;40.20;;;29.98;;